This is the latest recevied weather packets stored in our database for station/object KM4CNW. If no packets are shown the sender has not sent any weather packets the latest 10 day(s).
| Time | Temp. | Humidity | Pressure | Rain* | Wind** | Luminosity | Snow |
|---|---|---|---|---|---|---|---|
| 1777677620 | 15.56° C | 63% | 1006 hPa | 0 mm | - | 26 W/m² | - |
| 1777677317 | 15.56° C | 63% | 1006.1 hPa | 0 mm | - | 30 W/m² | - |
| 1777677016 | 15.56° C | 63% | 1006.3 hPa | 0 mm | - | 40 W/m² | - |
| 1777676714 | 16.11° C | 62% | 1006.1 hPa | 0 mm | - | 44 W/m² | - |
| 1777676411 | 16.11° C | 61% | 1006.3 hPa | 0 mm | - | 54 W/m² | - |
| 1777676109 | 16.11° C | 60% | 1006.2 hPa | 0 mm | - | 51 W/m² | - |
| 1777675804 | 16.11° C | 60% | 1006.1 hPa | 0 mm | - | 81 W/m² | - |
| 1777675503 | 16.11° C | 59% | 1006.1 hPa | 0 mm | - | 86 W/m² | - |
| 1777675199 | 16.11° C | 60% | 1006.2 hPa | 0 mm | - | 78 W/m² | - |
| 1777674896 | 16.67° C | 57% | 1006.3 hPa | 0 mm | - | 82 W/m² | - |
| 1777674591 | 17.22° C | 57% | 1006.1 hPa | 0 mm | - | 95 W/m² | - |
| 1777674289 | 16.67° C | 57% | 1006.2 hPa | 0 mm | - | 211 W/m² | - |
| 1777673985 | 16.67° C | 57% | 1006.2 hPa | 0 mm | - | 244 W/m² | - |
| 1777673682 | 17.22° C | 56% | 1006.1 hPa | 0 mm | - | 214 W/m² | - |
| 1777673380 | 16.67° C | 58% | 1006.3 hPa | 0 mm | - | 241 W/m² | - |
| 1777673077 | 16.67° C | 57% | 1006.1 hPa | 0 mm | - | 148 W/m² | - |
| 1777672773 | 17.22° C | 55% | 1006.4 hPa | 0 mm | - | 323 W/m² | - |
| 1777672470 | 17.22° C | 54% | 1006.5 hPa | 0 mm | - | 433 W/m² | - |
| 1777672165 | 17.22° C | 54% | 1006.4 hPa | 0 mm | - | 206 W/m² | - |
| 1777671861 | 17.22° C | 53% | 1006.3 hPa | 0 mm | - | 153 W/m² | - |
| 1777671556 | 18.33° C | 50% | 1006.4 hPa | 0 mm | - | 107 W/m² | - |
| 1777671254 | 18.89° C | 49% | 1006.5 hPa | 0 mm | - | 476 W/m² | - |
| 1777670949 | 18.33° C | 49% | 1006.6 hPa | 0 mm | - | 204 W/m² | - |
| 1777670646 | 18.33° C | 48% | 1006.5 hPa | 0 mm | - | 444 W/m² | - |
| 1777670343 | 18.33° C | 49% | 1006.6 hPa | 0 mm | - | 446 W/m² | - |
* Rain latest hour (hover to see other rain measurements)
** Current wind speed in m/s (hover to see current wind gust speed)